Time;durP1;ratioP1;P1;durP2;ratioP2;P2;SDS_P1;SDS_P2;PMS_P1;PMS_P2;Temp;Humidity;BMP_temperature;BMP_pressure;BME280_temperature;BME280_humidity;BME280_pressure;Samples;Min_cycle;Max_cycle;Signal;HPM_P1;HPM_P2
2023/03/11 00:00:45;;;;;;;9.27;2.80;;;3.20;98.50;;;;;;5075381;28;20059;-75
2023/03/11 00:03:13;;;;;;;9.00;2.38;;;3.10;98.50;;;;;;5086669;28;20025;-77
2023/03/11 00:05:41;;;;;;;13.52;2.60;;;3.10;98.60;;;;;;5079298;28;20024;-75
2023/03/11 00:08:08;;;;;;;15.55;3.35;;;3.10;98.60;;;;;;5087921;28;20036;-76
2023/03/11 00:10:38;;;;;;;11.13;2.78;;;3.10;98.60;;;;;;5079799;28;20107;-75
2023/03/11 00:13:04;;;;;;;13.50;3.20;;;3.10;98.50;;;;;;5089055;28;20032;-74
2023/03/11 00:15:31;;;;;;;11.68;2.45;;;3.10;98.50;;;;;;5083460;28;20082;-75
2023/03/11 00:17:57;;;;;;;18.33;3.47;;;3.10;98.50;;;;;;5071163;28;20017;-77
2023/03/11 00:20:25;;;;;;;12.05;3.30;;;3.10;98.40;;;;;;5083547;28;20031;-77
2023/03/11 00:22:51;;;;;;;5.50;2.42;;;3.20;98.30;;;;;;5076658;28;20386;-76
2023/03/11 00:25:17;;;;;;;10.07;2.85;;;3.10;98.30;;;;;;5080962;28;20062;-75
2023/03/11 00:27:43;;;;;;;8.82;2.60;;;3.00;98.20;;;;;;5090073;28;20133;-75
2023/03/11 00:30:11;;;;;;;17.05;3.20;;;3.00;98.20;;;;;;5087310;28;20028;-74
2023/03/11 00:32:36;;;;;;;13.25;2.85;;;3.00;98.20;;;;;;5091768;28;20423;-75
2023/03/11 00:35:02;;;;;;;14.27;3.17;;;3.00;98.20;;;;;;5086180;28;20040;-75
2023/03/11 00:37:28;;;;;;;9.02;2.55;;;3.00;98.00;;;;;;5081351;28;20025;-75
2023/03/11 00:39:53;;;;;;;12.93;3.03;;;2.90;98.00;;;;;;5077958;28;20032;-75
2023/03/11 00:42:19;;;;;;;9.68;2.63;;;2.90;97.90;;;;;;5086655;28;20474;-76
2023/03/11 00:44:44;;;;;;;8.15;2.55;;;2.90;97.90;;;;;;5090253;28;20092;-76
2023/03/11 00:47:11;;;;;;;8.75;2.72;;;2.90;97.80;;;;;;5096297;28;20490;-77
2023/03/11 00:49:37;;;;;;;12.30;2.38;;;2.90;98.00;;;;;;5094721;28;20489;-76
2023/03/11 00:52:03;;;;;;;12.20;2.65;;;2.80;97.80;;;;;;5083377;28;20036;-76
2023/03/11 00:54:29;;;;;;;13.63;3.15;;;2.80;97.70;;;;;;5092715;28;20637;-76
2023/03/11 00:56:58;;;;;;;10.75;2.58;;;2.80;97.60;;;;;;5081068;28;20060;-75
2023/03/11 00:59:24;;;;;;;10.93;3.00;;;2.80;97.50;;;;;;5089963;28;20039;-76
2023/03/11 01:01:51;;;;;;;8.85;2.42;;;2.80;97.40;;;;;;5089884;28;20087;-76
2023/03/11 01:04:16;;;;;;;11.18;3.42;;;2.90;97.40;;;;;;5092924;28;20028;-76
2023/03/11 01:06:42;;;;;;;13.40;2.30;;;2.90;97.30;;;;;;5081360;28;20024;-75
2023/03/11 01:09:07;;;;;;;10.95;2.10;;;2.80;97.20;;;;;;5089020;28;20052;-77
2023/03/11 01:11:33;;;;;;;6.32;2.10;;;2.90;97.10;;;;;;5082330;28;20029;-75
2023/03/11 01:13:59;;;;;;;17.02;2.50;;;2.80;97.00;;;;;;5086768;28;20098;-76
2023/03/11 01:16:24;;;;;;;9.50;2.50;;;2.80;97.00;;;;;;5089611;28;20025;-77
2023/03/11 01:18:50;;;;;;;7.35;2.20;;;2.80;97.00;;;;;;5079192;28;20021;-76
2023/03/11 01:21:16;;;;;;;12.98;3.13;;;2.70;97.00;;;;;;5075689;28;20028;-75
2023/03/11 01:23:41;;;;;;;14.48;3.25;;;2.70;97.00;;;;;;5083613;28;20024;-76
2023/03/11 01:26:07;;;;;;;8.05;1.83;;;2.70;97.00;;;;;;5087673;28;20028;-76
2023/03/11 01:28:33;;;;;;;7.63;2.00;;;2.80;96.90;;;;;;5071623;28;20112;-77
2023/03/11 01:30:59;;;;;;;8.73;2.20;;;2.80;97.00;;;;;;5072136;28;20577;-75
2023/03/11 01:33:24;;;;;;;10.07;2.38;;;2.80;96.90;;;;;;5082397;28;20025;-76
2023/03/11 01:35:50;;;;;;;8.02;2.00;;;2.80;96.80;;;;;;5079771;28;20047;-76
2023/03/11 01:38:16;;;;;;;14.35;2.15;;;2.80;96.70;;;;;;5082024;28;20056;-76
2023/03/11 01:40:48;;;;;;;14.00;2.33;;;2.80;96.70;;;;;;5076580;28;20016;-76
2023/03/11 01:43:38;;;;;;;13.90;3.35;;;2.80;96.70;;;;;;5076951;28;20086;-77
2023/03/11 01:46:27;;;;;;;8.15;2.20;;;2.80;96.60;;;;;;5090535;28;20044;-76
2023/03/11 01:48:54;;;;;;;11.65;2.13;;;2.80;96.60;;;;;;5089194;28;20031;-76
2023/03/11 01:51:36;;;;;;;9.55;1.92;;;2.80;96.70;;;;;;5077933;28;20027;-75
2023/03/11 01:54:09;;;;;;;11.10;2.63;;;2.80;96.70;;;;;;5085586;28;20119;-75
2023/03/11 01:56:35;;;;;;;14.77;2.13;;;2.80;96.60;;;;;;5087801;28;20081;-76
2023/03/11 01:59:01;;;;;;;15.75;2.30;;;2.80;96.60;;;;;;5073012;28;20033;-75
2023/03/11 02:01:27;;;;;;;11.80;2.42;;;2.80;96.70;;;;;;5085517;28;20032;-77
2023/03/11 02:03:54;;;;;;;10.88;2.60;;;2.80;96.70;;;;;;5077025;28;20016;-77
2023/03/11 02:06:22;;;;;;;9.88;2.15;;;2.70;96.60;;;;;;5078894;28;20042;-76
2023/03/11 02:08:49;;;;;;;12.57;2.05;;;2.70;96.60;;;;;;5080538;28;20084;-77
2023/03/11 02:11:25;;;;;;;12.30;2.40;;;2.70;96.60;;;;;;5069818;28;20025;-76
2023/03/11 02:13:55;;;;;;;13.40;2.00;;;2.70;96.60;;;;;;5079681;28;20532;-76
2023/03/11 02:16:22;;;;;;;9.57;2.50;;;2.70;96.60;;;;;;5069593;28;20036;-76
2023/03/11 02:18:48;;;;;;;12.82;2.38;;;2.70;96.60;;;;;;5072456;28;20470;-76
2023/03/11 02:21:25;;;;;;;6.47;2.03;;;2.70;96.70;;;;;;5084338;28;20022;-75
2023/03/11 02:24:24;;;;;;;8.57;2.47;;;2.60;96.90;;;;;;5085668;28;20077;-77
2023/03/11 02:27:10;;;;;;;7.15;2.40;;;2.60;96.70;;;;;;5072285;28;20038;-76
2023/03/11 02:29:37;;;;;;;12.13;2.20;;;2.60;96.70;;;;;;5075864;28;20141;-76
2023/03/11 02:32:06;;;;;;;8.10;2.03;;;2.70;96.70;;;;;;5088971;28;20016;-75
2023/03/11 02:34:36;;;;;;;12.18;3.17;;;2.70;96.70;;;;;;5078101;28;20051;-76
2023/03/11 02:37:10;;;;;;;10.60;2.43;;;2.70;96.80;;;;;;5088937;28;20487;-76
2023/03/11 02:39:39;;;;;;;13.07;2.67;;;2.70;96.70;;;;;;5085047;28;20258;-76
2023/03/11 02:42:26;;;;;;;13.18;2.30;;;2.70;96.60;;;;;;5087248;28;20048;-77
2023/03/11 02:45:04;;;;;;;10.63;2.30;;;2.70;96.60;;;;;;5075064;28;20024;-76
2023/03/11 02:47:31;;;;;;;7.95;2.17;;;2.70;96.60;;;;;;5088950;28;20024;-76
2023/03/11 02:49:57;;;;;;;13.77;2.85;;;2.70;96.70;;;;;;5080819;28;20467;-76
2023/03/11 02:52:26;;;;;;;9.88;2.25;;;2.80;96.70;;;;;;5073590;28;20027;-76
2023/03/11 02:54:52;;;;;;;6.07;2.50;;;2.80;96.80;;;;;;5078353;28;20035;-76
2023/03/11 02:57:18;;;;;;;9.88;2.95;;;2.80;96.80;;;;;;5081167;28;20028;-76
2023/03/11 02:59:43;;;;;;;12.02;3.05;;;2.80;96.80;;;;;;5086482;28;20046;-76
2023/03/11 03:02:09;;;;;;;8.43;2.20;;;2.90;96.80;;;;;;5075551;28;20202;-76
2023/03/11 03:04:34;;;;;;;10.73;2.70;;;2.90;96.90;;;;;;5074752;28;20122;-76
2023/03/11 03:07:00;;;;;;;15.38;2.33;;;2.90;96.90;;;;;;5081884;28;20367;-76
2023/03/11 03:09:26;;;;;;;11.23;2.45;;;2.90;96.90;;;;;;5073169;28;20036;-76
2023/03/11 03:11:51;;;;;;;8.38;2.40;;;3.00;96.80;;;;;;5084191;28;20031;-77
2023/03/11 03:14:17;;;;;;;8.07;2.55;;;3.00;96.80;;;;;;5085909;28;20028;-74
2023/03/11 03:16:42;;;;;;;10.35;2.05;;;3.00;96.90;;;;;;5086552;28;20107;-76
2023/03/11 03:19:08;;;;;;;9.40;2.22;;;3.10;96.90;;;;;;5087987;28;20065;-77
2023/03/11 03:21:35;;;;;;;8.70;2.22;;;3.10;96.80;;;;;;5086214;28;20027;-76
2023/03/11 03:24:00;;;;;;;8.35;2.22;;;3.10;96.60;;;;;;5085319;28;20029;-76
2023/03/11 03:26:27;;;;;;;10.50;2.38;;;3.10;96.50;;;;;;5083079;28;20027;-75
2023/03/11 03:28:53;;;;;;;10.50;2.25;;;3.10;96.50;;;;;;5072875;28;20024;-77
2023/03/11 03:31:18;;;;;;;12.15;3.05;;;3.10;96.40;;;;;;5085426;28;20032;-77
2023/03/11 03:33:44;;;;;;;11.43;2.70;;;3.10;96.30;;;;;;5084522;28;20033;-77
2023/03/11 03:36:12;;;;;;;8.07;2.70;;;3.10;96.20;;;;;;5085673;28;20043;-76
2023/03/11 03:38:38;;;;;;;13.10;2.40;;;3.00;96.10;;;;;;5084033;28;20070;-77
2023/03/11 03:41:04;;;;;;;12.68;2.55;;;3.00;96.10;;;;;;5085560;28;20103;-76
2023/03/11 03:43:30;;;;;;;14.43;2.72;;;3.00;96.10;;;;;;5082579;28;20037;-78
2023/03/11 03:46:02;;;;;;;11.95;2.60;;;3.00;96.20;;;;;;5086227;28;20838;-77
2023/03/11 03:48:28;;;;;;;10.82;3.00;;;3.00;96.30;;;;;;5088371;28;20020;-77
2023/03/11 03:50:53;;;;;;;6.32;2.60;;;3.00;96.40;;;;;;5086347;28;20036;-75
2023/03/11 03:53:19;;;;;;;11.15;2.80;;;3.00;96.50;;;;;;5083302;28;20028;-76
2023/03/11 03:55:45;;;;;;;12.45;2.72;;;3.00;96.50;;;;;;5084144;28;20040;-76
2023/03/11 03:58:11;;;;;;;15.23;2.72;;;3.00;96.50;;;;;;5085851;28;20056;-76
2023/03/11 04:00:38;;;;;;;11.48;3.78;;;3.00;96.50;;;;;;5086014;28;20028;-76
2023/03/11 04:03:04;;;;;;;10.30;2.10;;;3.00;96.50;;;;;;5082686;28;20031;-76
2023/03/11 04:05:30;;;;;;;8.18;2.85;;;3.00;96.60;;;;;;5079974;28;20035;-75
2023/03/11 04:07:56;;;;;;;12.20;2.38;;;3.00;96.60;;;;;;5085016;28;20135;-76
2023/03/11 04:10:22;;;;;;;9.77;2.03;;;3.00;96.80;;;;;;5083552;28;20541;-76
2023/03/11 04:12:47;;;;;;;14.88;3.00;;;3.00;96.50;;;;;;5085653;28;20510;-75
2023/03/11 04:15:13;;;;;;;6.97;2.03;;;3.10;96.60;;;;;;5087907;28;20040;-76
2023/03/11 04:17:39;;;;;;;14.25;2.28;;;3.10;96.60;;;;;;5081287;28;20044;-77
2023/03/11 04:20:11;;;;;;;19.65;3.00;;;3.10;96.70;;;;;;5087139;28;20024;-76
2023/03/11 04:22:37;;;;;;;6.70;2.63;;;3.10;96.60;;;;;;5080451;28;20053;-76
2023/03/11 04:25:02;;;;;;;10.13;2.20;;;3.20;96.60;;;;;;5090270;28;20062;-75
2023/03/11 04:27:28;;;;;;;15.02;2.20;;;3.20;96.50;;;;;;5084740;28;20502;-75
2023/03/11 04:29:54;;;;;;;8.30;2.20;;;3.20;96.40;;;;;;5085497;28;20393;-76
2023/03/11 04:32:21;;;;;;;10.07;2.20;;;3.10;96.30;;;;;;5081169;28;20042;-75
2023/03/11 04:34:48;;;;;;;10.10;2.92;;;3.10;96.20;;;;;;5083620;28;20089;-76
2023/03/11 04:37:14;;;;;;;11.05;2.25;;;3.10;96.20;;;;;;5083045;28;20036;-76
2023/03/11 04:39:39;;;;;;;7.78;2.72;;;3.10;96.10;;;;;;5084831;28;20035;-76
2023/03/11 04:42:05;;;;;;;9.07;2.45;;;3.00;96.10;;;;;;5085786;28;20024;-77
2023/03/11 04:44:33;;;;;;;10.88;2.20;;;3.00;96.40;;;;;;5085745;28;20062;-76
2023/03/11 04:46:59;;;;;;;6.78;2.05;;;3.00;96.10;;;;;;5085452;28;20667;-77
2023/03/11 04:49:24;;;;;;;10.23;2.10;;;3.00;96.00;;;;;;5080352;28;20024;-75
2023/03/11 04:51:50;;;;;;;8.75;2.72;;;3.00;96.00;;;;;;5081126;28;20057;-76
2023/03/11 04:54:15;;;;;;;7.70;2.15;;;3.00;95.90;;;;;;5081987;28;20027;-76
2023/03/11 04:56:41;;;;;;;10.80;2.85;;;3.00;95.90;;;;;;5079424;28;20028;-76
2023/03/11 04:59:07;;;;;;;12.43;2.35;;;2.90;95.90;;;;;;5081343;28;20024;-76
2023/03/11 05:01:32;;;;;;;9.80;1.92;;;2.90;95.90;;;;;;5083622;28;20024;-76
2023/03/11 05:03:58;;;;;;;10.35;1.98;;;2.90;95.90;;;;;;5077952;28;20131;-76
2023/03/11 05:06:23;;;;;;;10.57;2.22;;;2.90;95.90;;;;;;5082240;28;20024;-77
2023/03/11 05:08:49;;;;;;;12.10;2.20;;;2.90;95.90;;;;;;5085095;28;20044;-76
2023/03/11 05:11:15;;;;;;;8.85;1.88;;;2.80;95.90;;;;;;5082700;28;20024;-76
2023/03/11 05:13:40;;;;;;;11.32;2.47;;;2.80;95.80;;;;;;5079053;28;20016;-75
2023/03/11 05:16:06;;;;;;;10.57;2.33;;;2.80;95.80;;;;;;5080669;28;20039;-76
2023/03/11 05:18:32;;;;;;;7.28;1.48;;;2.80;95.70;;;;;;5084310;28;20367;-75
2023/03/11 05:20:58;;;;;;;12.05;2.38;;;2.80;95.70;;;;;;5083030;28;20498;-75
2023/03/11 05:23:23;;;;;;;5.47;2.08;;;2.80;95.70;;;;;;5083660;28;20020;-75
2023/03/11 05:25:49;;;;;;;9.80;2.20;;;2.80;95.60;;;;;;5085068;28;21875;-75
2023/03/11 05:28:15;;;;;;;6.68;1.60;;;2.80;95.60;;;;;;5081735;28;20031;-75
2023/03/11 05:30:40;;;;;;;6.65;2.00;;;2.80;95.50;;;;;;5082282;28;20119;-76
2023/03/11 05:33:07;;;;;;;12.70;3.85;;;2.70;95.50;;;;;;5080806;28;20067;-75
2023/03/11 05:35:32;;;;;;;8.05;1.73;;;2.80;95.50;;;;;;5083253;28;20123;-76
2023/03/11 05:37:58;;;;;;;6.40;2.00;;;2.70;95.40;;;;;;5085271;28;20578;-76
2023/03/11 05:40:24;;;;;;;5.63;1.65;;;2.70;95.50;;;;;;5082403;28;20024;-76
2023/03/11 05:42:50;;;;;;;5.05;1.75;;;2.60;95.40;;;;;;5084964;28;20028;-76
2023/03/11 05:45:16;;;;;;;9.68;1.98;;;2.60;95.50;;;;;;5080785;28;20131;-77
2023/03/11 05:47:42;;;;;;;7.18;2.30;;;2.60;95.50;;;;;;5083593;28;20024;-76
2023/03/11 05:50:09;;;;;;;7.32;1.92;;;2.60;95.50;;;;;;5082211;28;20151;-76
2023/03/11 05:52:34;;;;;;;5.57;1.67;;;2.50;95.50;;;;;;5084156;28;20548;-75
2023/03/11 05:55:00;;;;;;;7.45;2.20;;;2.50;95.40;;;;;;5082031;28;20032;-77
2023/03/11 05:57:26;;;;;;;6.20;1.60;;;2.50;95.50;;;;;;5085487;28;20098;-76
2023/03/11 05:59:51;;;;;;;8.23;2.20;;;2.50;95.40;;;;;;5082243;28;20107;-76
2023/03/11 06:02:17;;;;;;;7.15;2.15;;;2.50;95.50;;;;;;5076512;28;20059;-76
2023/03/11 06:04:42;;;;;;;10.10;2.15;;;2.50;95.50;;;;;;5083367;28;20482;-76
2023/03/11 06:07:08;;;;;;;7.80;2.13;;;2.50;95.50;;;;;;5084151;28;20066;-75
2023/03/11 06:09:37;;;;;;;9.02;1.75;;;2.40;95.40;;;;;;5082035;28;20132;-76
2023/03/11 06:12:04;;;;;;;11.02;1.85;;;2.40;95.40;;;;;;5082121;28;20020;-77
2023/03/11 06:14:31;;;;;;;6.20;2.03;;;2.40;95.40;;;;;;5081021;28;20032;-76
2023/03/11 06:16:57;;;;;;;7.78;2.08;;;2.40;95.40;;;;;;5081151;28;20024;-76
2023/03/11 06:19:24;;;;;;;7.03;2.00;;;2.40;95.40;;;;;;5080500;28;20107;-75
2023/03/11 06:21:50;;;;;;;5.50;1.73;;;2.40;95.50;;;;;;5081224;28;20373;-75
2023/03/11 06:24:15;;;;;;;5.07;1.40;;;2.50;97.10;;;;;;5081511;28;20451;-77
2023/03/11 06:26:42;;;;;;;5.82;1.40;;;2.50;96.50;;;;;;5084734;28;20039;-76
2023/03/11 06:29:12;;;;;;;6.68;2.08;;;2.50;96.20;;;;;;5088332;28;20024;-76
2023/03/11 06:31:38;;;;;;;9.43;2.42;;;2.60;96.20;;;;;;5083341;28;20115;-77
2023/03/11 06:34:05;;;;;;;7.78;2.20;;;2.70;95.90;;;;;;5086699;28;20221;-76
2023/03/11 06:36:31;;;;;;;5.38;2.00;;;2.80;95.80;;;;;;5084033;28;20048;-75
2023/03/11 06:38:57;;;;;;;7.38;1.88;;;2.90;95.60;;;;;;5082449;28;20319;-76
2023/03/11 06:41:24;;;;;;;5.30;1.50;;;2.90;95.40;;;;;;5083185;28;20495;-75
2023/03/11 06:43:49;;;;;;;7.13;1.60;;;2.90;95.40;;;;;;5084599;28;20063;-75
2023/03/11 06:46:19;;;;;;;7.53;1.83;;;3.00;95.50;;;;;;5087421;28;20123;-76
2023/03/11 06:48:45;;;;;;;8.00;1.55;;;3.20;95.30;;;;;;5084253;28;20036;-75
2023/03/11 06:51:11;;;;;;;7.40;2.33;;;3.30;95.10;;;;;;5078088;28;20077;-75
2023/03/11 06:53:37;;;;;;;6.70;1.30;;;3.40;95.00;;;;;;5083742;28;20403;-77
2023/03/11 06:56:11;;;;;;;7.47;2.15;;;3.50;94.70;;;;;;5088700;28;20040;-75
2023/03/11 06:58:39;;;;;;;9.90;2.08;;;3.60;94.60;;;;;;5081537;28;20509;-75
2023/03/11 07:01:22;;;;;;;8.15;1.70;;;3.70;94.50;;;;;;5089781;28;20028;-76
2023/03/11 07:03:51;;;;;;;6.25;1.50;;;3.80;94.40;;;;;;5081543;28;20066;-76
2023/03/11 07:06:22;;;;;;;8.07;1.65;;;3.90;94.20;;;;;;5087730;28;20124;-74
2023/03/11 07:08:50;;;;;;;5.00;1.38;;;4.00;94.00;;;;;;5078302;28;20079;-76
2023/03/11 07:11:26;;;;;;;11.00;1.80;;;4.10;93.90;;;;;;5079033;28;20453;-76
2023/03/11 07:13:53;;;;;;;6.53;1.60;;;4.20;93.80;;;;;;5085265;28;20028;-75
2023/03/11 07:16:21;;;;;;;5.28;1.48;;;4.30;93.70;;;;;;5075622;28;20035;-74
2023/03/11 07:18:50;;;;;;;9.18;2.08;;;4.40;93.50;;;;;;5085071;28;20023;-75
2023/03/11 07:21:18;;;;;;;6.45;2.10;;;4.60;93.70;;;;;;5084925;28;20031;-76
2023/03/11 07:23:45;;;;;;;5.65;1.83;;;4.60;93.20;;;;;;5073392;28;20067;-76
2023/03/11 07:26:12;;;;;;;7.50;1.52;;;4.70;93.30;;;;;;5085271;28;20039;-76
2023/03/11 07:28:38;;;;;;;5.63;1.65;;;4.90;93.10;;;;;;5085231;28;20040;-76
2023/03/11 07:31:12;;;;;;;8.50;1.90;;;5.00;92.90;;;;;;5086567;28;20038;-74
2023/03/11 07:33:38;;;;;;;6.75;1.73;;;5.10;92.70;;;;;;5080150;28;20051;-76
2023/03/11 07:36:08;;;;;;;6.68;1.60;;;5.30;92.80;;;;;;5082114;28;20131;-76
2023/03/11 07:38:34;;;;;;;5.15;1.70;;;5.40;92.60;;;;;;5084171;28;20036;-76
2023/03/11 07:41:00;;;;;;;7.07;1.60;;;5.50;92.40;;;;;;5080645;28;20028;-76
2023/03/11 07:43:26;;;;;;;4.60;1.45;;;5.60;92.40;;;;;;5084939;28;20039;-76
2023/03/11 07:45:51;;;;;;;7.13;1.50;;;5.80;94.20;;;;;;5086742;28;20109;-75
2023/03/11 07:48:17;;;;;;;6.78;1.50;;;5.90;92.80;;;;;;5083758;28;20028;-76
2023/03/11 07:50:42;;;;;;;5.78;1.45;;;6.00;92.10;;;;;;5080866;28;20020;-76
2023/03/11 07:53:08;;;;;;;12.43;1.83;;;6.20;91.90;;;;;;5080644;28;20052;-76
2023/03/11 07:55:34;;;;;;;10.00;1.75;;;6.30;91.90;;;;;;5076413;28;20402;-76
2023/03/11 07:57:59;;;;;;;7.18;1.73;;;6.40;91.50;;;;;;5078078;28;20024;-75
2023/03/11 08:00:25;;;;;;;6.47;1.30;;;6.60;91.30;;;;;;5079931;28;20040;-75
2023/03/11 08:02:51;;;;;;;6.38;1.42;;;6.70;89.80;;;;;;5079285;28;20507;-76
2023/03/11 08:05:19;;;;;;;4.70;1.20;;;6.80;89.70;;;;;;5082261;28;20390;-76
2023/03/11 08:07:45;;;;;;;5.28;1.58;;;6.90;89.90;;;;;;5075388;28;20113;-76
2023/03/11 08:10:11;;;;;;;7.57;1.70;;;7.10;89.70;;;;;;5080611;28;20402;-76
2023/03/11 08:12:37;;;;;;;4.13;1.30;;;7.20;87.60;;;;;;5084375;28;20383;-75
2023/03/11 08:15:03;;;;;;;7.22;1.30;;;7.40;87.70;;;;;;5082127;28;20040;-74
2023/03/11 08:17:29;;;;;;;7.25;1.38;;;7.60;86.40;;;;;;5076597;28;20031;-74
2023/03/11 08:19:54;;;;;;;6.00;1.95;;;7.80;86.40;;;;;;5080071;28;20024;-75
2023/03/11 08:22:20;;;;;;;7.95;1.40;;;7.90;86.30;;;;;;5084543;28;20031;-75
2023/03/11 08:24:50;;;;;;;5.72;1.33;;;8.00;85.70;;;;;;5075578;28;20036;-74
2023/03/11 08:27:16;;;;;;;9.07;1.85;;;8.20;85.20;;;;;;5080427;28;20020;-75
2023/03/11 08:29:42;;;;;;;4.03;0.90;;;8.30;85.70;;;;;;5074868;28;20020;-74
2023/03/11 08:32:07;;;;;;;6.50;1.10;;;8.50;82.40;;;;;;5080327;28;20169;-74
2023/03/11 08:34:34;;;;;;;5.05;1.20;;;8.60;81.50;;;;;;5081406;28;20058;-74
2023/03/11 08:36:59;;;;;;;5.68;1.42;;;8.70;81.70;;;;;;5079235;28;20032;-73
2023/03/11 08:39:25;;;;;;;5.13;1.42;;;8.80;81.30;;;;;;5079924;28;20035;-73
2023/03/11 08:41:51;;;;;;;8.57;1.65;;;8.90;80.00;;;;;;5074642;28;20147;-74
2023/03/11 08:44:16;;;;;;;3.97;1.40;;;9.00;80.80;;;;;;5077972;28;20020;-75
2023/03/11 08:46:42;;;;;;;9.60;1.67;;;9.10;81.20;;;;;;5079520;28;20028;-74
2023/03/11 08:49:08;;;;;;;4.50;1.35;;;9.20;79.80;;;;;;5083416;28;20981;-74
2023/03/11 08:51:35;;;;;;;7.82;1.27;;;9.30;80.10;;;;;;5073224;28;20077;-73
2023/03/11 08:54:01;;;;;;;6.47;1.30;;;9.40;78.40;;;;;;5084057;28;20096;-75
2023/03/11 08:56:27;;;;;;;2.58;1.20;;;9.60;78.60;;;;;;5081787;28;20064;-76
2023/03/11 08:58:53;;;;;;;5.95;1.88;;;9.70;77.30;;;;;;5080522;28;20067;-74
2023/03/11 09:01:19;;;;;;;5.70;1.35;;;9.80;79.80;;;;;;5081156;28;20649;-76
2023/03/11 09:03:44;;;;;;;18.13;3.55;;;9.80;78.30;;;;;;5078650;28;20016;-74
2023/03/11 09:06:14;;;;;;;6.85;1.15;;;9.90;76.90;;;;;;5079410;28;20476;-76
2023/03/11 09:08:40;;;;;;;6.63;1.67;;;9.90;75.30;;;;;;5078976;28;20052;-75
2023/03/11 09:11:06;;;;;;;3.70;1.27;;;10.00;76.10;;;;;;5075165;28;20036;-75
2023/03/11 09:13:32;;;;;;;6.57;1.35;;;10.10;75.60;;;;;;5078132;28;20028;-75
2023/03/11 09:15:58;;;;;;;5.00;1.40;;;10.10;78.80;;;;;;5083606;28;20044;-73
2023/03/11 09:18:23;;;;;;;9.02;1.48;;;10.20;76.00;;;;;;5080276;28;20028;-74
2023/03/11 09:20:49;;;;;;;5.22;1.50;;;10.20;74.70;;;;;;5080735;28;20059;-74
2023/03/11 09:23:16;;;;;;;6.05;1.40;;;10.20;74.40;;;;;;5079540;28;20032;-73
2023/03/11 09:25:42;;;;;;;5.57;2.13;;;10.20;73.80;;;;;;5080025;28;20028;-74
2023/03/11 09:28:08;;;;;;;4.88;1.38;;;10.30;73.40;;;;;;5074056;28;20127;-74
2023/03/11 09:30:34;;;;;;;7.82;1.70;;;10.30;71.90;;;;;;5079762;28;20031;-74
2023/03/11 09:33:00;;;;;;;4.20;1.33;;;10.50;71.20;;;;;;5076549;28;20024;-74
2023/03/11 09:35:26;;;;;;;6.22;1.80;;;10.60;71.60;;;;;;5082355;28;20440;-74
2023/03/11 09:37:53;;;;;;;6.50;1.58;;;10.70;72.10;;;;;;5080827;28;20055;-74
2023/03/11 09:40:21;;;;;;;7.13;1.30;;;10.80;67.60;;;;;;5078891;28;20039;-74
2023/03/11 09:43:09;;;;;;;7.75;1.52;;;10.80;66.00;;;;;;5078854;28;20047;-74
2023/03/11 09:45:39;;;;;;;4.90;0.90;;;10.80;68.30;;;;;;5080056;28;20028;-74
2023/03/11 09:48:31;;;;;;;;;;;10.80;65.00;;;;;;5074955;28;20028;-75
2023/03/11 09:51:12;;;;;;;6.88;2.13;;;10.70;67.40;;;;;;5077127;28;19992;-75
2023/03/11 09:53:44;;;;;;;6.47;1.60;;;10.80;69.20;;;;;;5074480;28;20024;-72
2023/03/11 09:56:16;;;;;;;3.78;1.45;;;10.90;69.00;;;;;;5073378;28;20051;-74
2023/03/11 09:58:55;;;;;;;3.65;0.80;;;11.00;68.70;;;;;;5077061;28;20032;-74
2023/03/11 10:01:33;;;;;;;4.63;1.25;;;11.00;65.60;;;;;;5082159;28;20569;-74
2023/03/11 10:04:26;;;;;;;6.22;1.67;;;11.10;78.50;;;;;;5075243;28;20070;-75
2023/03/11 10:06:52;;;;;;;7.05;1.42;;;11.00;70.60;;;;;;5077636;28;20024;-75
2023/03/11 10:09:27;;;;;;;3.97;0.90;;;11.20;67.90;;;;;;5078268;28;20414;-75
2023/03/11 10:12:17;;;;;;;4.55;1.13;;;11.30;66.50;;;;;;5078464;28;20051;-74
2023/03/11 10:15:11;;;;;;;5.15;0.88;;;11.50;73.30;;;;;;5068757;28;20025;-74
2023/03/11 10:17:42;;;;;;;4.40;1.05;;;11.40;67.30;;;;;;5074332;28;20089;-74
2023/03/11 10:20:26;;;;;;;5.55;0.90;;;11.50;62.50;;;;;;5077082;28;20024;-74
2023/03/11 10:23:19;;;;;;;4.60;0.88;;;11.60;60.40;;;;;;5079425;28;20028;-74
2023/03/11 10:26:10;;;;;;;2.40;0.80;;;11.70;62.30;;;;;;5080665;28;20020;-74
2023/03/11 10:28:42;;;;;;;3.35;0.60;;;11.80;81.50;;;;;;5077884;28;20024;-74
2023/03/11 10:31:54;;;;;;;1.98;0.77;;;11.90;65.80;;;;;;5079086;28;20017;-74
2023/03/11 10:34:22;;;;;;;6.80;1.40;;;11.90;61.80;;;;;;4999790;28;20030;-75
2023/03/11 10:37:02;;;;;;;6.93;1.35;;;12.00;59.60;;;;;;4984824;28;20034;-75
2023/03/11 10:39:30;;;;;;;2.97;0.93;;;12.10;58.50;;;;;;5036607;28;20043;-74
2023/03/11 10:42:04;;;;;;;2.47;0.85;;;12.30;92.90;;;;;;5081290;28;20089;-74
2023/03/11 10:44:39;;;;;;;7.28;0.88;;;12.20;72.60;;;;;;5075593;28;20036;-75
2023/03/11 10:47:05;;;;;;;3.95;0.60;;;12.10;63.20;;;;;;5079666;28;20023;-75
2023/03/11 10:49:32;;;;;;;3.80;1.02;;;12.10;58.10;;;;;;5080271;28;20709;-75
2023/03/11 10:51:57;;;;;;;3.97;0.90;;;12.00;57.10;;;;;;5078071;28;20028;-75
2023/03/11 10:54:31;;;;;;;5.75;0.77;;;11.90;57.00;;;;;;5076924;28;20082;-76
2023/03/11 10:57:02;;;;;;;8.10;1.25;;;12.10;58.50;;;;;;5075003;28;20458;-76
2023/03/11 10:59:46;;;;;;;6.38;1.25;;;12.10;57.90;;;;;;5077909;28;20103;-75
2023/03/11 11:02:39;;;;;;;4.43;1.00;;;12.10;56.60;;;;;;5079829;28;20070;-74
2023/03/11 11:05:31;;;;;;;5.05;0.80;;;12.00;54.30;;;;;;5077797;28;20055;-75
2023/03/11 11:08:13;;;;;;;4.93;1.33;;;11.90;55.00;;;;;;5081221;28;20383;-74
2023/03/11 11:10:59;;;;;;;4.32;1.10;;;12.00;56.50;;;;;;5078295;28;20020;-75
2023/03/11 11:13:29;;;;;;;4.60;1.60;;;12.10;56.10;;;;;;5083018;28;20024;-74
2023/03/11 11:16:02;;;;;;;3.85;1.48;;;12.30;77.10;;;;;;5083714;28;20061;-75
2023/03/11 11:18:32;;;;;;;15.27;5.80;;;12.30;84.70;;;;;;5080699;28;20056;-75
2023/03/11 11:21:00;;;;;;;;;;;12.30;71.10;;;;;;5079870;28;20024;-74
2023/03/11 11:23:37;;;;;;;7.10;2.65;;;12.40;56.90;;;;;;5081339;28;19926;-75
2023/03/11 11:26:20;;;;;;;3.35;0.88;;;12.60;62.30;;;;;;5080543;28;20032;-75
2023/03/11 11:29:03;;;;;;;7.20;1.13;;;12.70;65.00;;;;;;5079621;28;20032;-76
2023/03/11 11:31:29;;;;;;;5.35;1.17;;;12.80;85.00;;;;;;5079178;28;20378;-76
2023/03/11 11:33:55;;;;;;;7.82;1.10;;;12.90;63.50;;;;;;5075043;28;20036;-76
2023/03/11 11:36:32;;;;;;;2.92;1.00;;;13.10;61.80;;;;;;5084918;28;20048;-76
2023/03/11 11:39:03;;;;;;;6.53;1.63;;;13.30;67.70;;;;;;5082945;28;20087;-75
2023/03/11 11:41:31;;;;;;;4.38;1.35;;;13.40;88.50;;;;;;5081605;28;20042;-76
2023/03/11 11:44:02;;;;;;;6.00;1.45;;;13.50;92.80;;;;;;5077021;28;20028;-75
2023/03/11 11:46:38;;;;;;;5.13;1.00;;;13.50;92.50;;;;;;5080261;28;20035;-76
2023/03/11 11:49:17;;;;;;;5.97;1.58;;;13.40;71.70;;;;;;5074553;28;20078;-74
2023/03/11 11:52:12;;;;;;;3.83;0.98;;;13.50;65.40;;;;;;5070684;28;20028;-73
2023/03/11 11:54:49;;;;;;;6.72;1.85;;;13.60;57.00;;;;;;5073065;28;20040;-74
2023/03/11 11:57:20;;;;;;;5.28;1.20;;;13.90;49.50;;;;;;5078677;28;20486;-74
2023/03/11 11:59:46;;;;;;;6.18;1.40;;;14.00;50.10;;;;;;5083157;28;20073;-73
2023/03/11 12:02:17;;;;;;;5.95;0.90;;;14.00;52.70;;;;;;5077931;28;20024;-74
2023/03/11 12:04:45;;;;;;;;;;;14.10;50.10;;;;;;5077952;28;20493;-74
2023/03/11 12:07:13;;;;;;;4.45;1.77;;;14.20;57.30;;;;;;5076882;28;19908;-75
2023/03/11 12:09:54;;;;;;;4.68;1.15;;;14.00;50.50;;;;;;5075945;28;20063;-74
2023/03/11 12:12:31;;;;;;;4.35;1.08;;;13.90;50.20;;;;;;5077800;28;20024;-73
2023/03/11 12:15:18;;;;;;;3.03;1.10;;;14.00;66.20;;;;;;5080102;28;20020;-74
2023/03/11 12:17:47;;;;;;;4.10;1.08;;;14.00;49.70;;;;;;5082403;28;20040;-75
2023/03/11 12:20:31;;;;;;;5.97;1.42;;;14.00;54.40;;;;;;5081474;28;20024;-74
2023/03/11 12:23:12;;;;;;;5.43;1.23;;;14.10;57.40;;;;;;5079551;28;20039;-75
2023/03/11 12:25:59;;;;;;;3.05;0.75;;;14.10;56.80;;;;;;5077039;28;20089;-73
2023/03/11 12:28:53;;;;;;;2.75;0.90;;;14.10;58.50;;;;;;5079678;28;20028;-74
2023/03/11 12:31:22;;;;;;;6.65;1.33;;;14.00;70.40;;;;;;5077866;28;20059;-77
2023/03/11 12:33:55;;;;;;;5.35;0.90;;;14.00;53.00;;;;;;5076517;28;20081;-73
2023/03/11 12:36:34;;;;;;;2.70;0.90;;;14.10;48.10;;;;;;5073249;28;20033;-74
2023/03/11 12:39:04;;;;;;;2.88;0.80;;;14.00;47.90;;;;;;5074140;28;20039;-74
2023/03/11 12:41:41;;;;;;;11.10;1.20;;;13.90;47.40;;;;;;5082226;28;20020;-75
2023/03/11 12:44:30;;;;;;;5.07;0.90;;;13.70;50.00;;;;;;5081970;28;20024;-74
2023/03/11 12:46:58;;;;;;;3.75;0.80;;;13.50;60.20;;;;;;5080895;28;20613;-72
2023/03/11 12:49:30;;;;;;;4.03;1.10;;;13.40;50.00;;;;;;5077367;28;20024;-74
2023/03/11 12:52:11;;;;;;;6.38;1.15;;;13.50;50.20;;;;;;5080884;28;20024;-74
2023/03/11 12:54:39;;;;;;;3.83;0.85;;;13.50;49.60;;;;;;5076635;28;20074;-72
2023/03/11 12:57:11;;;;;;;3.47;0.90;;;13.40;53.00;;;;;;5075040;28;20028;-74
2023/03/11 13:00:11;;;;;;;7.90;1.85;;;13.40;52.40;;;;;;5076216;28;20027;-73
2023/03/11 13:03:05;;;;;;;4.80;1.20;;;13.40;53.30;;;;;;5078250;28;21630;-74
2023/03/11 13:05:37;;;;;;;2.97;0.98;;;13.60;50.80;;;;;;5096333;28;20032;-74